sensor_id;sensor_type;location;lat;lon;timestamp;P1;durP1;ratioP1;P2;durP2;ratioP2
9940;SDS011;5009;50.656;7.188;2022-07-03T00:00:21;2.53;;;2.22;;
9940;SDS011;5009;50.656;7.188;2022-07-03T00:02:46;4.13;;;1.88;;
9940;SDS011;5009;50.656;7.188;2022-07-03T00:05:12;2.25;;;1.98;;
9940;SDS011;5009;50.656;7.188;2022-07-03T00:07:38;2.40;;;2.20;;
9940;SDS011;5009;50.656;7.188;2022-07-03T00:10:03;2.58;;;1.80;;
9940;SDS011;5009;50.656;7.188;2022-07-03T00:12:30;2.10;;;1.90;;
9940;SDS011;5009;50.656;7.188;2022-07-03T00:14:56;3.22;;;1.98;;
9940;SDS011;5009;50.656;7.188;2022-07-03T00:17:22;2.45;;;1.80;;
9940;SDS011;5009;50.656;7.188;2022-07-03T00:19:47;2.65;;;1.98;;
9940;SDS011;5009;50.656;7.188;2022-07-03T00:22:14;2.10;;;1.90;;
9940;SDS011;5009;50.656;7.188;2022-07-03T00:27:38;3.95;;;1.95;;
9940;SDS011;5009;50.656;7.188;2022-07-03T00:30:04;5.28;;;2.00;;
9940;SDS011;5009;50.656;7.188;2022-07-03T00:32:32;3.50;;;1.95;;
9940;SDS011;5009;50.656;7.188;2022-07-03T00:34:59;4.55;;;2.33;;
9940;SDS011;5009;50.656;7.188;2022-07-03T00:37:26;3.45;;;2.20;;
9940;SDS011;5009;50.656;7.188;2022-07-03T00:39:51;2.55;;;2.13;;
9940;SDS011;5009;50.656;7.188;2022-07-03T00:42:17;2.40;;;2.20;;
9940;SDS011;5009;50.656;7.188;2022-07-03T00:47:11;3.55;;;2.30;;
9940;SDS011;5009;50.656;7.188;2022-07-03T00:49:37;1.83;;;1.55;;
9940;SDS011;5009;50.656;7.188;2022-07-03T00:52:04;2.13;;;1.73;;
9940;SDS011;5009;50.656;7.188;2022-07-03T00:54:34;3.47;;;1.90;;
9940;SDS011;5009;50.656;7.188;2022-07-03T00:57:01;2.05;;;1.88;;
9940;SDS011;5009;50.656;7.188;2022-07-03T00:59:27;2.38;;;1.88;;
9940;SDS011;5009;50.656;7.188;2022-07-03T01:01:59;5.83;;;2.00;;
9940;SDS011;5009;50.656;7.188;2022-07-03T01:07:11;4.47;;;1.90;;
9940;SDS011;5009;50.656;7.188;2022-07-03T01:09:59;3.77;;;2.53;;
9940;SDS011;5009;50.656;7.188;2022-07-03T01:12:50;1.97;;;1.87;;
9940;SDS011;5009;50.656;7.188;2022-07-03T01:26:38;2.20;;;2.00;;
9940;SDS011;5009;50.656;7.188;2022-07-03T01:29:10;3.07;;;2.00;;
9940;SDS011;5009;50.656;7.188;2022-07-03T01:31:42;2.10;;;1.80;;
9940;SDS011;5009;50.656;7.188;2022-07-03T01:34:12;3.37;;;1.87;;
9940;SDS011;5009;50.656;7.188;2022-07-03T01:36:42;4.03;;;2.20;;
9940;SDS011;5009;50.656;7.188;2022-07-03T01:39:10;2.07;;;1.90;;
9940;SDS011;5009;50.656;7.188;2022-07-03T01:41:36;3.57;;;2.17;;
9940;SDS011;5009;50.656;7.188;2022-07-03T01:44:02;2.10;;;2.00;;
9940;SDS011;5009;50.656;7.188;2022-07-03T01:46:29;2.20;;;2.00;;
9940;SDS011;5009;50.656;7.188;2022-07-03T01:48:56;2.23;;;2.10;;
9940;SDS011;5009;50.656;7.188;2022-07-03T01:51:22;2.97;;;2.10;;
9940;SDS011;5009;50.656;7.188;2022-07-03T01:53:50;1.93;;;1.83;;
9940;SDS011;5009;50.656;7.188;2022-07-03T01:56:17;3.10;;;1.80;;
9940;SDS011;5009;50.656;7.188;2022-07-03T01:58:43;2.73;;;2.10;;
9940;SDS011;5009;50.656;7.188;2022-07-03T02:03:42;3.57;;;2.07;;
9940;SDS011;5009;50.656;7.188;2022-07-03T02:09:03;2.67;;;1.90;;
9940;SDS011;5009;50.656;7.188;2022-07-03T02:11:33;3.47;;;2.07;;
9940;SDS011;5009;50.656;7.188;2022-07-03T02:16:54;3.20;;;2.17;;
9940;SDS011;5009;50.656;7.188;2022-07-03T02:20:02;2.13;;;2.03;;
9940;SDS011;5009;50.656;7.188;2022-07-03T02:22:37;3.57;;;2.40;;
9940;SDS011;5009;50.656;7.188;2022-07-03T02:25:09;3.67;;;2.63;;
9940;SDS011;5009;50.656;7.188;2022-07-03T02:27:44;5.33;;;2.20;;
9940;SDS011;5009;50.656;7.188;2022-07-03T02:30:15;2.37;;;2.03;;
9940;SDS011;5009;50.656;7.188;2022-07-03T02:32:48;2.17;;;2.07;;
9940;SDS011;5009;50.656;7.188;2022-07-03T02:35:28;2.30;;;2.10;;
9940;SDS011;5009;50.656;7.188;2022-07-03T02:43:41;3.60;;;2.30;;
9940;SDS011;5009;50.656;7.188;2022-07-03T02:46:29;2.83;;;2.10;;
9940;SDS011;5009;50.656;7.188;2022-07-03T02:52:10;4.67;;;2.53;;
9940;SDS011;5009;50.656;7.188;2022-07-03T02:54:47;2.40;;;2.20;;
9940;SDS011;5009;50.656;7.188;2022-07-03T02:57:19;2.33;;;2.17;;
9940;SDS011;5009;50.656;7.188;2022-07-03T02:59:59;2.53;;;2.23;;
9940;SDS011;5009;50.656;7.188;2022-07-03T03:08:23;3.33;;;2.50;;
9940;SDS011;5009;50.656;7.188;2022-07-03T03:11:02;3.40;;;2.13;;
9940;SDS011;5009;50.656;7.188;2022-07-03T03:13:31;3.73;;;2.83;;
9940;SDS011;5009;50.656;7.188;2022-07-03T03:15:58;2.67;;;2.37;;
9940;SDS011;5009;50.656;7.188;2022-07-03T03:18:38;2.60;;;2.40;;
9940;SDS011;5009;50.656;7.188;2022-07-03T03:21:08;2.97;;;2.10;;
9940;SDS011;5009;50.656;7.188;2022-07-03T03:23:47;3.87;;;2.27;;
9940;SDS011;5009;50.656;7.188;2022-07-03T03:26:21;4.40;;;2.50;;
9940;SDS011;5009;50.656;7.188;2022-07-03T03:28:48;3.57;;;2.57;;
9940;SDS011;5009;50.656;7.188;2022-07-03T03:31:15;3.40;;;2.40;;
9940;SDS011;5009;50.656;7.188;2022-07-03T03:33:42;4.33;;;2.33;;
9940;SDS011;5009;50.656;7.188;2022-07-03T03:36:09;3.57;;;2.27;;
9940;SDS011;5009;50.656;7.188;2022-07-03T03:38:36;3.90;;;2.50;;
9940;SDS011;5009;50.656;7.188;2022-07-03T03:41:03;4.47;;;2.43;;
9940;SDS011;5009;50.656;7.188;2022-07-03T03:43:29;2.90;;;1.90;;
9940;SDS011;5009;50.656;7.188;2022-07-03T03:45:55;2.40;;;2.20;;
9940;SDS011;5009;50.656;7.188;2022-07-03T03:48:21;2.93;;;2.20;;
9940;SDS011;5009;50.656;7.188;2022-07-03T03:50:47;2.57;;;2.10;;
9940;SDS011;5009;50.656;7.188;2022-07-03T03:53:13;3.27;;;1.90;;
9940;SDS011;5009;50.656;7.188;2022-07-03T03:58:31;4.37;;;2.23;;
9940;SDS011;5009;50.656;7.188;2022-07-03T04:01:00;3.17;;;2.30;;
9940;SDS011;5009;50.656;7.188;2022-07-03T04:03:28;1.90;;;1.80;;
9940;SDS011;5009;50.656;7.188;2022-07-03T04:05:54;3.33;;;2.40;;
9940;SDS011;5009;50.656;7.188;2022-07-03T04:08:21;2.90;;;2.20;;
9940;SDS011;5009;50.656;7.188;2022-07-03T04:10:47;3.37;;;2.27;;
9940;SDS011;5009;50.656;7.188;2022-07-03T04:13:14;3.00;;;2.20;;
9940;SDS011;5009;50.656;7.188;2022-07-03T04:15:41;3.60;;;2.53;;
9940;SDS011;5009;50.656;7.188;2022-07-03T04:18:06;2.53;;;2.33;;
9940;SDS011;5009;50.656;7.188;2022-07-03T04:20:33;2.37;;;2.13;;
9940;SDS011;5009;50.656;7.188;2022-07-03T04:22:58;2.93;;;2.37;;
9940;SDS011;5009;50.656;7.188;2022-07-03T04:25:24;2.47;;;2.27;;
9940;SDS011;5009;50.656;7.188;2022-07-03T04:27:50;4.93;;;2.73;;
9940;SDS011;5009;50.656;7.188;2022-07-03T04:30:16;4.87;;;2.70;;
9940;SDS011;5009;50.656;7.188;2022-07-03T04:32:42;3.97;;;2.60;;
9940;SDS011;5009;50.656;7.188;2022-07-03T04:35:08;5.90;;;2.67;;
9940;SDS011;5009;50.656;7.188;2022-07-03T04:37:34;3.90;;;2.23;;
9940;SDS011;5009;50.656;7.188;2022-07-03T04:40:00;3.73;;;2.33;;
9940;SDS011;5009;50.656;7.188;2022-07-03T04:42:26;2.40;;;2.28;;
9940;SDS011;5009;50.656;7.188;2022-07-03T04:44:52;3.50;;;2.05;;
9940;SDS011;5009;50.656;7.188;2022-07-03T04:47:17;5.45;;;2.42;;
9940;SDS011;5009;50.656;7.188;2022-07-03T04:49:43;3.53;;;2.67;;
9940;SDS011;5009;50.656;7.188;2022-07-03T04:52:09;3.85;;;2.25;;
9940;SDS011;5009;50.656;7.188;2022-07-03T04:54:35;2.70;;;2.50;;
9940;SDS011;5009;50.656;7.188;2022-07-03T04:57:01;3.40;;;2.67;;
9940;SDS011;5009;50.656;7.188;2022-07-03T04:59:27;2.60;;;2.20;;
9940;SDS011;5009;50.656;7.188;2022-07-03T05:01:52;4.32;;;2.20;;
9940;SDS011;5009;50.656;7.188;2022-07-03T05:04:18;3.17;;;2.67;;
9940;SDS011;5009;50.656;7.188;2022-07-03T05:06:44;2.85;;;2.50;;
9940;SDS011;5009;50.656;7.188;2022-07-03T05:09:10;2.65;;;2.45;;
9940;SDS011;5009;50.656;7.188;2022-07-03T05:11:35;3.20;;;2.30;;
9940;SDS011;5009;50.656;7.188;2022-07-03T05:14:01;2.35;;;2.15;;
9940;SDS011;5009;50.656;7.188;2022-07-03T05:16:28;3.17;;;2.30;;
9940;SDS011;5009;50.656;7.188;2022-07-03T05:18:53;2.53;;;2.20;;
9940;SDS011;5009;50.656;7.188;2022-07-03T05:21:19;2.90;;;2.20;;
9940;SDS011;5009;50.656;7.188;2022-07-03T05:23:44;2.58;;;2.28;;
9940;SDS011;5009;50.656;7.188;2022-07-03T05:26:10;3.55;;;2.47;;
9940;SDS011;5009;50.656;7.188;2022-07-03T05:28:35;3.28;;;2.13;;
9940;SDS011;5009;50.656;7.188;2022-07-03T05:31:01;1.80;;;1.70;;
9940;SDS011;5009;50.656;7.188;2022-07-03T05:33:26;2.30;;;2.10;;
9940;SDS011;5009;50.656;7.188;2022-07-03T05:35:54;2.80;;;2.28;;
9940;SDS011;5009;50.656;7.188;2022-07-03T05:38:20;3.03;;;2.55;;
9940;SDS011;5009;50.656;7.188;2022-07-03T05:41:04;3.03;;;2.20;;
9940;SDS011;5009;50.656;7.188;2022-07-03T05:43:30;3.28;;;2.45;;
9940;SDS011;5009;50.656;7.188;2022-07-03T05:45:56;4.70;;;2.40;;
9940;SDS011;5009;50.656;7.188;2022-07-03T05:48:21;4.13;;;2.63;;
9940;SDS011;5009;50.656;7.188;2022-07-03T05:50:47;4.38;;;2.30;;
9940;SDS011;5009;50.656;7.188;2022-07-03T05:53:12;4.18;;;2.50;;
9940;SDS011;5009;50.656;7.188;2022-07-03T05:55:38;2.92;;;2.70;;
9940;SDS011;5009;50.656;7.188;2022-07-03T05:58:03;2.83;;;2.50;;
9940;SDS011;5009;50.656;7.188;2022-07-03T06:00:29;3.47;;;2.33;;
9940;SDS011;5009;50.656;7.188;2022-07-03T06:02:54;2.60;;;2.40;;
9940;SDS011;5009;50.656;7.188;2022-07-03T06:05:20;3.55;;;2.33;;
9940;SDS011;5009;50.656;7.188;2022-07-03T06:07:45;2.50;;;2.30;;
9940;SDS011;5009;50.656;7.188;2022-07-03T06:10:11;5.75;;;2.40;;
9940;SDS011;5009;50.656;7.188;2022-07-03T06:12:36;3.33;;;2.67;;
9940;SDS011;5009;50.656;7.188;2022-07-03T06:15:02;5.22;;;2.55;;
9940;SDS011;5009;50.656;7.188;2022-07-03T06:17:28;3.08;;;2.75;;
9940;SDS011;5009;50.656;7.188;2022-07-03T06:19:54;2.55;;;2.40;;
9940;SDS011;5009;50.656;7.188;2022-07-03T06:22:19;2.97;;;2.78;;
9940;SDS011;5009;50.656;7.188;2022-07-03T06:24:45;3.50;;;2.80;;
9940;SDS011;5009;50.656;7.188;2022-07-03T06:27:10;3.33;;;3.03;;
9940;SDS011;5009;50.656;7.188;2022-07-03T06:29:36;2.58;;;2.40;;
9940;SDS011;5009;50.656;7.188;2022-07-03T06:32:01;3.83;;;2.90;;
9940;SDS011;5009;50.656;7.188;2022-07-03T06:34:27;3.00;;;2.80;;
9940;SDS011;5009;50.656;7.188;2022-07-03T06:36:52;3.35;;;2.80;;
9940;SDS011;5009;50.656;7.188;2022-07-03T06:39:18;3.85;;;2.85;;
9940;SDS011;5009;50.656;7.188;2022-07-03T06:41:43;4.70;;;2.95;;
9940;SDS011;5009;50.656;7.188;2022-07-03T06:44:09;3.20;;;2.90;;
9940;SDS011;5009;50.656;7.188;2022-07-03T06:46:34;2.90;;;2.70;;
9940;SDS011;5009;50.656;7.188;2022-07-03T06:49:00;3.47;;;3.00;;
9940;SDS011;5009;50.656;7.188;2022-07-03T06:51:25;4.55;;;3.17;;
9940;SDS011;5009;50.656;7.188;2022-07-03T06:53:51;3.75;;;2.90;;
9940;SDS011;5009;50.656;7.188;2022-07-03T06:56:16;5.13;;;2.88;;
9940;SDS011;5009;50.656;7.188;2022-07-03T06:58:42;3.40;;;3.10;;
9940;SDS011;5009;50.656;7.188;2022-07-03T07:01:07;4.22;;;3.20;;
9940;SDS011;5009;50.656;7.188;2022-07-03T07:03:33;3.47;;;3.10;;
9940;SDS011;5009;50.656;7.188;2022-07-03T07:05:58;3.60;;;3.33;;
9940;SDS011;5009;50.656;7.188;2022-07-03T07:08:24;3.30;;;3.10;;
9940;SDS011;5009;50.656;7.188;2022-07-03T07:10:49;3.55;;;3.10;;
9940;SDS011;5009;50.656;7.188;2022-07-03T07:13:15;3.83;;;2.97;;
9940;SDS011;5009;50.656;7.188;2022-07-03T07:15:40;4.00;;;3.45;;
9940;SDS011;5009;50.656;7.188;2022-07-03T07:18:06;3.55;;;3.22;;
9940;SDS011;5009;50.656;7.188;2022-07-03T07:20:31;3.40;;;3.20;;
9940;SDS011;5009;50.656;7.188;2022-07-03T07:22:57;5.65;;;3.38;;
9940;SDS011;5009;50.656;7.188;2022-07-03T07:25:23;3.60;;;3.30;;
9940;SDS011;5009;50.656;7.188;2022-07-03T07:27:48;3.55;;;3.33;;
9940;SDS011;5009;50.656;7.188;2022-07-03T07:30:14;3.40;;;3.20;;
9940;SDS011;5009;50.656;7.188;2022-07-03T07:32:39;3.65;;;3.30;;
9940;SDS011;5009;50.656;7.188;2022-07-03T07:35:05;3.30;;;3.05;;
9940;SDS011;5009;50.656;7.188;2022-07-03T07:37:32;5.18;;;3.20;;
9940;SDS011;5009;50.656;7.188;2022-07-03T07:39:57;3.92;;;3.72;;
9940;SDS011;5009;50.656;7.188;2022-07-03T07:42:22;4.10;;;3.70;;
9940;SDS011;5009;50.656;7.188;2022-07-03T07:44:49;3.60;;;3.40;;
9940;SDS011;5009;50.656;7.188;2022-07-03T07:47:15;4.35;;;3.50;;
9940;SDS011;5009;50.656;7.188;2022-07-03T07:49:40;4.72;;;3.63;;
9940;SDS011;5009;50.656;7.188;2022-07-03T07:52:06;3.85;;;3.50;;
9940;SDS011;5009;50.656;7.188;2022-07-03T07:54:32;3.35;;;3.10;;
9940;SDS011;5009;50.656;7.188;2022-07-03T07:56:58;4.18;;;2.92;;
9940;SDS011;5009;50.656;7.188;2022-07-03T07:59:23;3.45;;;3.10;;
9940;SDS011;5009;50.656;7.188;2022-07-03T08:01:49;3.83;;;2.53;;
9940;SDS011;5009;50.656;7.188;2022-07-03T08:04:33;4.20;;;2.25;;
9940;SDS011;5009;50.656;7.188;2022-07-03T08:07:17;2.75;;;2.55;;
9940;SDS011;5009;50.656;7.188;2022-07-03T08:09:42;2.28;;;2.15;;
9940;SDS011;5009;50.656;7.188;2022-07-03T08:12:08;4.35;;;2.47;;
9940;SDS011;5009;50.656;7.188;2022-07-03T08:14:34;4.57;;;2.67;;
9940;SDS011;5009;50.656;7.188;2022-07-03T08:16:59;3.53;;;2.22;;
9940;SDS011;5009;50.656;7.188;2022-07-03T08:19:25;2.55;;;2.35;;
9940;SDS011;5009;50.656;7.188;2022-07-03T08:21:50;3.05;;;2.17;;
9940;SDS011;5009;50.656;7.188;2022-07-03T08:24:16;5.93;;;2.70;;
9940;SDS011;5009;50.656;7.188;2022-07-03T08:26:41;2.45;;;2.05;;
9940;SDS011;5009;50.656;7.188;2022-07-03T08:29:07;2.63;;;2.20;;
9940;SDS011;5009;50.656;7.188;2022-07-03T08:31:33;2.42;;;2.22;;
9940;SDS011;5009;50.656;7.188;2022-07-03T08:33:58;3.65;;;2.45;;
9940;SDS011;5009;50.656;7.188;2022-07-03T08:36:24;2.20;;;2.08;;
9940;SDS011;5009;50.656;7.188;2022-07-03T08:38:49;3.28;;;2.40;;
9940;SDS011;5009;50.656;7.188;2022-07-03T08:41:15;3.85;;;2.33;;
9940;SDS011;5009;50.656;7.188;2022-07-03T08:43:42;2.45;;;2.10;;
9940;SDS011;5009;50.656;7.188;2022-07-03T08:46:09;2.40;;;2.20;;
9940;SDS011;5009;50.656;7.188;2022-07-03T08:48:36;3.22;;;2.15;;
9940;SDS011;5009;50.656;7.188;2022-07-03T08:51:02;2.42;;;2.28;;
9940;SDS011;5009;50.656;7.188;2022-07-03T08:53:28;3.33;;;2.10;;
9940;SDS011;5009;50.656;7.188;2022-07-03T08:55:54;3.35;;;2.45;;
9940;SDS011;5009;50.656;7.188;2022-07-03T08:58:21;5.03;;;2.38;;
9940;SDS011;5009;50.656;7.188;2022-07-03T09:00:47;3.72;;;2.10;;
9940;SDS011;5009;50.656;7.188;2022-07-03T09:03:14;2.13;;;2.03;;
9940;SDS011;5009;50.656;7.188;2022-07-03T09:05:40;4.00;;;2.50;;
9940;SDS011;5009;50.656;7.188;2022-07-03T09:08:07;2.40;;;2.20;;
9940;SDS011;5009;50.656;7.188;2022-07-03T09:10:33;2.50;;;2.30;;
9940;SDS011;5009;50.656;7.188;2022-07-03T09:12:59;2.10;;;1.90;;
9940;SDS011;5009;50.656;7.188;2022-07-03T09:15:25;4.35;;;2.33;;
9940;SDS011;5009;50.656;7.188;2022-07-03T09:20:43;2.15;;;1.95;;
9940;SDS011;5009;50.656;7.188;2022-07-03T09:23:13;3.85;;;2.28;;
9940;SDS011;5009;50.656;7.188;2022-07-03T09:26:00;2.25;;;2.05;;
9940;SDS011;5009;50.656;7.188;2022-07-03T09:28:43;4.95;;;2.17;;
9940;SDS011;5009;50.656;7.188;2022-07-03T09:31:16;2.92;;;2.05;;
9940;SDS011;5009;50.656;7.188;2022-07-03T09:39:19;3.20;;;2.13;;
9940;SDS011;5009;50.656;7.188;2022-07-03T09:44:30;2.85;;;2.30;;
9940;SDS011;5009;50.656;7.188;2022-07-03T09:47:09;2.60;;;1.90;;
9940;SDS011;5009;50.656;7.188;2022-07-03T09:57:31;2.75;;;2.35;;
9940;SDS011;5009;50.656;7.188;2022-07-03T10:00:12;2.95;;;2.17;;
9940;SDS011;5009;50.656;7.188;2022-07-03T10:02:50;2.30;;;2.10;;
9940;SDS011;5009;50.656;7.188;2022-07-03T10:05:18;2.65;;;2.15;;
9940;SDS011;5009;50.656;7.188;2022-07-03T10:10:18;1.83;;;1.70;;
9940;SDS011;5009;50.656;7.188;2022-07-03T10:12:45;5.35;;;1.83;;
9940;SDS011;5009;50.656;7.188;2022-07-03T10:15:11;2.80;;;1.90;;
9940;SDS011;5009;50.656;7.188;2022-07-03T10:17:38;2.25;;;1.90;;
9940;SDS011;5009;50.656;7.188;2022-07-03T10:20:05;2.95;;;1.98;;
9940;SDS011;5009;50.656;7.188;2022-07-03T10:22:31;3.70;;;1.92;;
9940;SDS011;5009;50.656;7.188;2022-07-03T10:25:03;2.78;;;1.90;;
9940;SDS011;5009;50.656;7.188;2022-07-03T10:27:30;2.38;;;2.03;;
9940;SDS011;5009;50.656;7.188;2022-07-03T10:29:56;1.65;;;1.55;;
9940;SDS011;5009;50.656;7.188;2022-07-03T10:32:24;3.45;;;1.83;;
9940;SDS011;5009;50.656;7.188;2022-07-03T10:34:51;2.63;;;1.98;;
9940;SDS011;5009;50.656;7.188;2022-07-03T10:37:17;2.67;;;2.30;;
9940;SDS011;5009;50.656;7.188;2022-07-03T10:39:48;3.17;;;2.28;;
9940;SDS011;5009;50.656;7.188;2022-07-03T10:42:44;4.70;;;2.25;;
9940;SDS011;5009;50.656;7.188;2022-07-03T10:45:31;4.13;;;2.05;;
9940;SDS011;5009;50.656;7.188;2022-07-03T10:47:57;3.92;;;2.20;;
9940;SDS011;5009;50.656;7.188;2022-07-03T10:50:23;2.28;;;2.08;;
9940;SDS011;5009;50.656;7.188;2022-07-03T10:52:49;2.25;;;2.05;;
9940;SDS011;5009;50.656;7.188;2022-07-03T10:55:16;3.03;;;2.30;;
9940;SDS011;5009;50.656;7.188;2022-07-03T10:57:43;6.82;;;1.90;;
9940;SDS011;5009;50.656;7.188;2022-07-03T11:00:39;2.53;;;2.33;;
9940;SDS011;5009;50.656;7.188;2022-07-03T11:09:10;2.45;;;2.22;;
9940;SDS011;5009;50.656;7.188;2022-07-03T11:11:40;2.35;;;2.15;;
9940;SDS011;5009;50.656;7.188;2022-07-03T11:14:20;3.88;;;2.20;;
9940;SDS011;5009;50.656;7.188;2022-07-03T11:16:47;6.38;;;2.53;;
9940;SDS011;5009;50.656;7.188;2022-07-03T11:19:12;5.20;;;2.83;;
9940;SDS011;5009;50.656;7.188;2022-07-03T11:21:41;2.90;;;1.88;;
9940;SDS011;5009;50.656;7.188;2022-07-03T11:27:11;3.05;;;2.08;;
9940;SDS011;5009;50.656;7.188;2022-07-03T11:29:38;2.28;;;2.10;;
9940;SDS011;5009;50.656;7.188;2022-07-03T11:32:48;2.28;;;2.05;;
9940;SDS011;5009;50.656;7.188;2022-07-03T11:38:09;2.70;;;2.50;;
9940;SDS011;5009;50.656;7.188;2022-07-03T11:40:35;2.50;;;2.22;;
9940;SDS011;5009;50.656;7.188;2022-07-03T11:43:05;1.80;;;1.70;;
9940;SDS011;5009;50.656;7.188;2022-07-03T11:45:31;2.88;;;2.28;;
9940;SDS011;5009;50.656;7.188;2022-07-03T11:47:56;2.20;;;2.05;;
9940;SDS011;5009;50.656;7.188;2022-07-03T11:50:35;4.43;;;2.40;;
9940;SDS011;5009;50.656;7.188;2022-07-03T11:53:14;4.47;;;2.08;;
9940;SDS011;5009;50.656;7.188;2022-07-03T11:55:48;2.40;;;2.20;;
9940;SDS011;5009;50.656;7.188;2022-07-03T11:58:14;2.90;;;2.20;;
9940;SDS011;5009;50.656;7.188;2022-07-03T12:00:40;1.85;;;1.70;;
9940;SDS011;5009;50.656;7.188;2022-07-03T12:03:06;2.20;;;2.00;;
9940;SDS011;5009;50.656;7.188;2022-07-03T12:05:32;2.47;;;2.08;;
9940;SDS011;5009;50.656;7.188;2022-07-03T12:08:04;3.47;;;2.22;;
9940;SDS011;5009;50.656;7.188;2022-07-03T12:10:40;2.88;;;1.83;;
9940;SDS011;5009;50.656;7.188;2022-07-03T12:13:18;3.53;;;1.88;;
9940;SDS011;5009;50.656;7.188;2022-07-03T12:15:47;3.28;;;2.13;;
9940;SDS011;5009;50.656;7.188;2022-07-03T12:18:14;2.63;;;1.88;;
9940;SDS011;5009;50.656;7.188;2022-07-03T12:20:40;3.88;;;2.13;;
9940;SDS011;5009;50.656;7.188;2022-07-03T12:23:06;3.30;;;1.83;;
9940;SDS011;5009;50.656;7.188;2022-07-03T12:25:32;2.38;;;2.17;;
9940;SDS011;5009;50.656;7.188;2022-07-03T12:28:03;2.55;;;2.33;;
9940;SDS011;5009;50.656;7.188;2022-07-03T12:30:29;3.67;;;2.55;;
9940;SDS011;5009;50.656;7.188;2022-07-03T12:32:55;1.98;;;1.80;;
9940;SDS011;5009;50.656;7.188;2022-07-03T12:35:21;2.17;;;1.90;;
9940;SDS011;5009;50.656;7.188;2022-07-03T12:37:48;3.17;;;2.28;;
9940;SDS011;5009;50.656;7.188;2022-07-03T12:40:13;2.42;;;1.70;;
9940;SDS011;5009;50.656;7.188;2022-07-03T12:45:11;3.42;;;2.22;;
9940;SDS011;5009;50.656;7.188;2022-07-03T12:47:37;5.43;;;2.15;;
9940;SDS011;5009;50.656;7.188;2022-07-03T12:50:04;2.65;;;1.92;;
9940;SDS011;5009;50.656;7.188;2022-07-03T12:52:31;5.93;;;2.08;;
9940;SDS011;5009;50.656;7.188;2022-07-03T12:54:58;3.70;;;2.25;;
9940;SDS011;5009;50.656;7.188;2022-07-03T12:57:24;3.70;;;2.20;;
9940;SDS011;5009;50.656;7.188;2022-07-03T13:02:37;2.85;;;2.05;;
9940;SDS011;5009;50.656;7.188;2022-07-03T13:07:43;2.58;;;2.22;;
9940;SDS011;5009;50.656;7.188;2022-07-03T13:10:10;4.30;;;2.30;;
9940;SDS011;5009;50.656;7.188;2022-07-03T13:12:45;2.72;;;2.10;;
9940;SDS011;5009;50.656;7.188;2022-07-03T13:15:18;2.25;;;2.00;;
9940;SDS011;5009;50.656;7.188;2022-07-03T13:20:23;2.83;;;2.30;;
9940;SDS011;5009;50.656;7.188;2022-07-03T13:22:51;3.28;;;2.00;;
9940;SDS011;5009;50.656;7.188;2022-07-03T13:25:18;3.35;;;2.10;;
9940;SDS011;5009;50.656;7.188;2022-07-03T13:27:44;2.38;;;2.17;;
9940;SDS011;5009;50.656;7.188;2022-07-03T13:30:10;4.15;;;1.98;;
9940;SDS011;5009;50.656;7.188;2022-07-03T13:32:40;4.25;;;2.35;;
9940;SDS011;5009;50.656;7.188;2022-07-03T13:35:06;6.45;;;2.50;;
9940;SDS011;5009;50.656;7.188;2022-07-03T13:37:32;2.65;;;2.08;;
9940;SDS011;5009;50.656;7.188;2022-07-03T13:39:58;5.45;;;2.45;;
9940;SDS011;5009;50.656;7.188;2022-07-03T13:42:23;2.40;;;2.20;;
9940;SDS011;5009;50.656;7.188;2022-07-03T13:44:49;2.65;;;2.40;;
9940;SDS011;5009;50.656;7.188;2022-07-03T13:47:15;2.20;;;1.92;;
9940;SDS011;5009;50.656;7.188;2022-07-03T13:49:41;3.13;;;2.20;;
9940;SDS011;5009;50.656;7.188;2022-07-03T13:52:06;2.47;;;2.30;;
9940;SDS011;5009;50.656;7.188;2022-07-03T13:54:32;2.25;;;2.05;;
9940;SDS011;5009;50.656;7.188;2022-07-03T13:56:57;3.05;;;2.30;;
9940;SDS011;5009;50.656;7.188;2022-07-03T13:59:23;4.85;;;2.20;;
9940;SDS011;5009;50.656;7.188;2022-07-03T14:01:49;3.58;;;2.17;;
9940;SDS011;5009;50.656;7.188;2022-07-03T14:04:14;3.78;;;2.03;;
9940;SDS011;5009;50.656;7.188;2022-07-03T14:06:40;2.10;;;1.80;;
9940;SDS011;5009;50.656;7.188;2022-07-03T14:09:05;2.47;;;2.28;;
9940;SDS011;5009;50.656;7.188;2022-07-03T14:11:31;3.17;;;2.22;;
9940;SDS011;5009;50.656;7.188;2022-07-03T14:13:56;3.47;;;1.88;;
9940;SDS011;5009;50.656;7.188;2022-07-03T14:16:22;3.03;;;2.17;;
9940;SDS011;5009;50.656;7.188;2022-07-03T14:18:48;2.33;;;2.20;;
9940;SDS011;5009;50.656;7.188;2022-07-03T14:21:14;2.17;;;1.98;;
9940;SDS011;5009;50.656;7.188;2022-07-03T14:23:39;3.13;;;2.05;;
9940;SDS011;5009;50.656;7.188;2022-07-03T14:26:05;4.07;;;2.50;;
9940;SDS011;5009;50.656;7.188;2022-07-03T14:28:30;2.25;;;2.00;;
9940;SDS011;5009;50.656;7.188;2022-07-03T14:31:14;2.67;;;2.10;;
9940;SDS011;5009;50.656;7.188;2022-07-03T14:33:46;2.25;;;2.10;;
9940;SDS011;5009;50.656;7.188;2022-07-03T14:36:12;2.00;;;1.83;;
9940;SDS011;5009;50.656;7.188;2022-07-03T14:38:38;3.67;;;2.00;;
9940;SDS011;5009;50.656;7.188;2022-07-03T14:41:03;3.35;;;2.20;;
9940;SDS011;5009;50.656;7.188;2022-07-03T14:43:29;6.40;;;1.98;;
9940;SDS011;5009;50.656;7.188;2022-07-03T14:45:54;3.75;;;2.00;;
9940;SDS011;5009;50.656;7.188;2022-07-03T14:48:20;2.90;;;2.45;;
9940;SDS011;5009;50.656;7.188;2022-07-03T14:50:45;3.40;;;2.55;;
9940;SDS011;5009;50.656;7.188;2022-07-03T14:53:11;2.20;;;2.10;;
9940;SDS011;5009;50.656;7.188;2022-07-03T14:55:38;4.45;;;2.08;;
9940;SDS011;5009;50.656;7.188;2022-07-03T14:58:13;3.28;;;2.97;;
9940;SDS011;5009;50.656;7.188;2022-07-03T15:00:41;4.47;;;3.40;;
9940;SDS011;5009;50.656;7.188;2022-07-03T15:05:43;3.83;;;2.08;;
9940;SDS011;5009;50.656;7.188;2022-07-03T15:10:52;3.90;;;2.13;;
9940;SDS011;5009;50.656;7.188;2022-07-03T15:13:19;4.53;;;1.80;;
9940;SDS011;5009;50.656;7.188;2022-07-03T15:15:45;4.13;;;2.42;;
9940;SDS011;5009;50.656;7.188;2022-07-03T15:18:13;3.42;;;2.00;;
9940;SDS011;5009;50.656;7.188;2022-07-03T15:20:42;4.85;;;1.90;;
9940;SDS011;5009;50.656;7.188;2022-07-03T15:23:08;2.88;;;2.05;;
9940;SDS011;5009;50.656;7.188;2022-07-03T15:25:35;2.95;;;1.90;;
9940;SDS011;5009;50.656;7.188;2022-07-03T15:28:02;2.47;;;2.28;;
9940;SDS011;5009;50.656;7.188;2022-07-03T15:30:28;2.58;;;2.00;;
9940;SDS011;5009;50.656;7.188;2022-07-03T15:32:54;3.22;;;2.33;;
9940;SDS011;5009;50.656;7.188;2022-07-03T15:35:24;2.85;;;2.45;;
9940;SDS011;5009;50.656;7.188;2022-07-03T15:38:00;3.85;;;1.90;;
9940;SDS011;5009;50.656;7.188;2022-07-03T15:40:46;1.90;;;1.80;;
9940;SDS011;5009;50.656;7.188;2022-07-03T15:52:03;1.95;;;1.80;;
9940;SDS011;5009;50.656;7.188;2022-07-03T16:00:14;3.03;;;2.58;;
9940;SDS011;5009;50.656;7.188;2022-07-03T16:05:36;2.30;;;2.20;;
9940;SDS011;5009;50.656;7.188;2022-07-03T16:08:07;2.72;;;2.10;;
9940;SDS011;5009;50.656;7.188;2022-07-03T16:10:35;2.20;;;2.00;;
9940;SDS011;5009;50.656;7.188;2022-07-03T16:13:02;2.28;;;2.08;;
9940;SDS011;5009;50.656;7.188;2022-07-03T16:15:33;3.65;;;2.60;;
9940;SDS011;5009;50.656;7.188;2022-07-03T16:18:02;3.58;;;2.78;;
9940;SDS011;5009;50.656;7.188;2022-07-03T16:20:28;3.85;;;2.40;;
9940;SDS011;5009;50.656;7.188;2022-07-03T16:22:56;4.25;;;1.98;;
9940;SDS011;5009;50.656;7.188;2022-07-03T16:25:26;4.03;;;2.03;;
9940;SDS011;5009;50.656;7.188;2022-07-03T16:27:51;2.63;;;1.92;;
9940;SDS011;5009;50.656;7.188;2022-07-03T16:30:17;2.85;;;1.90;;
9940;SDS011;5009;50.656;7.188;2022-07-03T16:32:43;1.90;;;1.70;;
9940;SDS011;5009;50.656;7.188;2022-07-03T16:37:56;6.30;;;2.30;;
9940;SDS011;5009;50.656;7.188;2022-07-03T16:40:25;5.88;;;2.45;;
9940;SDS011;5009;50.656;7.188;2022-07-03T16:42:52;3.13;;;2.83;;
9940;SDS011;5009;50.656;7.188;2022-07-03T16:45:18;2.85;;;2.45;;
9940;SDS011;5009;50.656;7.188;2022-07-03T16:47:49;5.72;;;3.90;;
9940;SDS011;5009;50.656;7.188;2022-07-03T16:50:19;4.15;;;2.70;;
9940;SDS011;5009;50.656;7.188;2022-07-03T16:52:50;3.22;;;2.42;;
9940;SDS011;5009;50.656;7.188;2022-07-03T16:55:19;4.80;;;2.13;;
9940;SDS011;5009;50.656;7.188;2022-07-03T16:57:53;3.50;;;2.40;;
9940;SDS011;5009;50.656;7.188;2022-07-03T17:00:23;2.38;;;1.98;;
9940;SDS011;5009;50.656;7.188;2022-07-03T17:02:51;3.17;;;2.08;;
9940;SDS011;5009;50.656;7.188;2022-07-03T17:05:18;3.72;;;2.15;;
9940;SDS011;5009;50.656;7.188;2022-07-03T17:07:46;4.28;;;2.20;;
9940;SDS011;5009;50.656;7.188;2022-07-03T17:10:14;2.90;;;2.20;;
9940;SDS011;5009;50.656;7.188;2022-07-03T17:12:40;3.10;;;2.20;;
9940;SDS011;5009;50.656;7.188;2022-07-03T17:15:16;6.20;;;2.33;;